Mount Vernon, Arkansas
Current Conditions -  °F | °C
As of 3:58 PM on Tuesday 25 Nov 2014 (Local Time) from KLRF Reporting Station
Clear Clear  
Wind Chill: 53°   Ceiling: Unl
Heat Index: 53°   Visibility: 10mi
Dew Point: 19°   Wind: 2mph
Humidity: 26%   Direction: 280°W
Pressure: 30.16"   Gusts: NA
Location:  35.23°N, 92.12°W
Report Text: KLRF 252158Z AUTO 28002KT 10SM CLR 12/M07 A3016 RMK AO2 SLP218 T01191071
Loading
Personal Weather Stations






























Interactive Weather Map New forecast layout! Learn more

10-Day Weather Forecast

Advertisements
Track Severe Weather on mobile